sensor_id;sensor_type;location;lat;lon;timestamp;pressure;altitude;pressure_sealevel;temperature;humidity
57799;BME280;43626;53.866;30.298;2023-03-21T00:04:25;1019.1;;;4.3;52.8
57799;BME280;43626;53.866;30.298;2023-03-21T00:09:09;1019.1;;;4.3;52.9
57799;BME280;43626;53.866;30.298;2023-03-21T00:14:27;1019.1;;;4.2;53
57799;BME280;43626;53.866;30.298;2023-03-21T00:18:49;1019;;;4.2;53.2
57799;BME280;43626;53.866;30.298;2023-03-21T00:23:55;1019;;;4.2;53.4
57799;BME280;43626;53.866;30.298;2023-03-21T00:28:40;1018.9;;;4.1;53.8
57799;BME280;43626;53.866;30.298;2023-03-21T00:34:27;1018.9;;;4;54.1
57799;BME280;43626;53.866;30.298;2023-03-21T00:38:39;1018.8;;;4;54.4
57799;BME280;43626;53.866;30.298;2023-03-21T00:44:01;1018.8;;;3.9;54.3
57799;BME280;43626;53.866;30.298;2023-03-21T04:48:47;1018.8;;;3.9;54.3
57799;BME280;43626;53.866;30.298;2023-03-21T04:53:59;1017.6;;;3.1;59.1
57799;BME280;43626;53.866;30.298;2023-03-21T04:59:25;1017.6;;;3.1;59
57799;BME280;43626;53.866;30.298;2023-03-21T05:04:12;1017.5;;;3.2;59
57799;BME280;43626;53.866;30.298;2023-03-21T05:08:39;1017.5;;;3.2;58.9
57799;BME280;43626;53.866;30.298;2023-03-21T05:14:27;1017.5;;;3.3;58.7
57799;BME280;43626;53.866;30.298;2023-03-21T05:18:56;1017.5;;;3.4;58.7
57799;BME280;43626;53.866;30.298;2023-03-21T05:23:49;1017.6;;;3.6;58.7
57799;BME280;43626;53.866;30.298;2023-03-21T05:29:20;1017.7;;;3.7;59
57799;BME280;43626;53.866;30.298;2023-03-21T05:34:27;1017.6;;;3.9;58.9
57799;BME280;43626;53.866;30.298;2023-03-21T05:38:39;1017.6;;;4;58.8
57799;BME280;43626;53.866;30.298;2023-03-21T05:44:05;1017.6;;;4.1;58.8
57799;BME280;43626;53.866;30.298;2023-03-21T05:49:17;1017.6;;;4.2;59.2
57799;BME280;43626;53.866;30.298;2023-03-21T05:54:11;1017.6;;;4.4;59.9
57799;BME280;43626;53.866;30.298;2023-03-21T05:59:05;1017.6;;;4.5;60.1
57799;BME280;43626;53.866;30.298;2023-03-21T06:03:39;1017.7;;;4.5;60.1
57799;BME280;43626;53.866;30.298;2023-03-21T06:09:25;1017.7;;;4.6;60
57799;BME280;43626;53.866;30.298;2023-03-21T06:14:25;1017.7;;;4.6;60
57799;BME280;43626;53.866;30.298;2023-03-21T06:18:51;1017.7;;;4.7;59.7
57799;BME280;43626;53.866;30.298;2023-03-21T06:24:25;1017.7;;;4.8;59.6
57799;BME280;43626;53.866;30.298;2023-03-21T06:28:39;1017.6;;;4.9;59.6
57799;BME280;43626;53.866;30.298;2023-03-21T06:33:39;1017.6;;;4.9;59.6
57799;BME280;43626;53.866;30.298;2023-03-21T06:38:53;1017.5;;;4.9;59.6
57799;BME280;43626;53.866;30.298;2023-03-21T06:44:25;1017.6;;;5;59.6
57799;BME280;43626;53.866;30.298;2023-03-21T06:49:15;1017.7;;;5;59.7
57799;BME280;43626;53.866;30.298;2023-03-21T06:53:59;1017.7;;;5;59.5
57799;BME280;43626;53.866;30.298;2023-03-21T06:59:25;1017.8;;;5;59.6
57799;BME280;43626;53.866;30.298;2023-03-21T07:03:47;1017.8;;;5.1;59.5
57799;BME280;43626;53.866;30.298;2023-03-21T07:08:51;1017.8;;;5.1;59.6
57799;BME280;43626;53.866;30.298;2023-03-21T07:14:09;1017.8;;;5.1;59.6
57799;BME280;43626;53.866;30.298;2023-03-21T07:19:25;1017.8;;;5.1;59.7
57799;BME280;43626;53.866;30.298;2023-03-21T07:24:05;1017.8;;;5.1;59.8
57799;BME280;43626;53.866;30.298;2023-03-21T07:29:03;1017.9;;;5.1;59.9
57799;BME280;43626;53.866;30.298;2023-03-21T07:33:47;1018;;;5.2;59.8
57799;BME280;43626;53.866;30.298;2023-03-21T07:39:05;1018;;;5.2;59.8
57799;BME280;43626;53.866;30.298;2023-03-21T07:43:47;1017.9;;;5.3;59.9
57799;BME280;43626;53.866;30.298;2023-03-21T07:48:53;1018;;;5.3;59.9
57799;BME280;43626;53.866;30.298;2023-03-21T07:54:05;1018;;;5.3;59.9
57799;BME280;43626;53.866;30.298;2023-03-21T07:58:39;1018;;;5.4;60.3
57799;BME280;43626;53.866;30.298;2023-03-21T08:04:25;1018;;;5.4;60.9
57799;BME280;43626;53.866;30.298;2023-03-21T08:09:11;1018;;;5.4;61.2
57799;BME280;43626;53.866;30.298;2023-03-21T08:13:47;1018;;;5.5;61.3
57799;BME280;43626;53.866;30.298;2023-03-21T08:19:23;1018.1;;;5.5;61.3
57799;BME280;43626;53.866;30.298;2023-03-21T08:23:55;1018.1;;;5.5;61.4
57799;BME280;43626;53.866;30.298;2023-03-21T08:28:47;1018.2;;;5.5;61.5
57799;BME280;43626;53.866;30.298;2023-03-21T08:34:05;1018.2;;;5.6;61.5
57799;BME280;43626;53.866;30.298;2023-03-21T08:39:25;1018.2;;;5.6;61.8
57799;BME280;43626;53.866;30.298;2023-03-21T08:43:39;1018.1;;;5.7;62.3
57799;BME280;43626;53.866;30.298;2023-03-21T08:49:25;1018.1;;;5.7;63.2
57799;BME280;43626;53.866;30.298;2023-03-21T08:54:25;1018;;;5.9;64.1
57799;BME280;43626;53.866;30.298;2023-03-21T08:59:11;1018;;;6.1;64.1
57799;BME280;43626;53.866;30.298;2023-03-21T09:03:59;1018.2;;;6.2;63.9
57799;BME280;43626;53.866;30.298;2023-03-21T09:09:11;1018.3;;;6.2;63.7
57799;BME280;43626;53.866;30.298;2023-03-21T09:13:55;1018.3;;;6.2;63.5
57799;BME280;43626;53.866;30.298;2023-03-21T09:19:25;1018.3;;;6.3;63.5
57799;BME280;43626;53.866;30.298;2023-03-21T09:23:39;1018.4;;;6.4;63.4
57799;BME280;43626;53.866;30.298;2023-03-21T09:29:25;1018.4;;;6.5;63.3
57799;BME280;43626;53.866;30.298;2023-03-21T09:34:01;1018.3;;;6.7;63.1
57799;BME280;43626;53.866;30.298;2023-03-21T09:38:39;1018.3;;;6.8;63
57799;BME280;43626;53.866;30.298;2023-03-21T09:43:57;1018.4;;;6.9;63.1
57799;BME280;43626;53.866;30.298;2023-03-21T09:49:26;1018.4;;;6.9;63
57799;BME280;43626;53.866;30.298;2023-03-21T09:54:04;1018.5;;;7;63.4
57799;BME280;43626;53.866;30.298;2023-03-21T09:59:07;1018.5;;;7.2;63.3
57799;BME280;43626;53.866;30.298;2023-03-21T10:04:25;1018.5;;;7.4;63.3
57799;BME280;43626;53.866;30.298;2023-03-21T10:08:39;1018.5;;;7.6;62.6
57799;BME280;43626;53.866;30.298;2023-03-21T10:13:58;1018.5;;;7.7;62.6
57799;BME280;43626;53.866;30.298;2023-03-21T10:19:06;1018.5;;;7.9;62.8
57799;BME280;43626;53.866;30.298;2023-03-21T10:24:25;1018.5;;;8.1;62.3
57799;BME280;43626;53.866;30.298;2023-03-21T10:29:17;1018.6;;;8.3;62.2
57799;BME280;43626;53.866;30.298;2023-03-21T10:33:40;1018.6;;;8.3;62
57799;BME280;43626;53.866;30.298;2023-03-21T10:38:54;1018.7;;;8.2;62.3
57799;BME280;43626;53.866;30.298;2023-03-21T10:44:06;1018.7;;;8.1;62.5
57799;BME280;43626;53.866;30.298;2023-03-21T10:48:41;1018.8;;;8;62.9
57799;BME280;43626;53.866;30.298;2023-03-21T10:54:28;1018.7;;;7.9;63
57799;BME280;43626;53.866;30.298;2023-03-21T10:59:28;1018.7;;;7.8;64.1
57799;BME280;43626;53.866;30.298;2023-03-21T11:03:51;1018.7;;;7.7;64.8
57799;BME280;43626;53.866;30.298;2023-03-21T11:09:14;1018.7;;;7.9;64.6
57799;BME280;43626;53.866;30.298;2023-03-21T11:14:22;1018.7;;;7.8;64.1
57799;BME280;43626;53.866;30.298;2023-03-21T11:18:40;1018.7;;;7.7;64.6
57799;BME280;43626;53.866;30.298;2023-03-21T11:24:27;1018.6;;;7.8;64.5
57799;BME280;43626;53.866;30.298;2023-03-21T11:29:08;1018.6;;;7.9;64.3
57799;BME280;43626;53.866;30.298;2023-03-21T11:33:49;1018.6;;;8.1;63.8
57799;BME280;43626;53.866;30.298;2023-03-21T11:39:11;1018.6;;;8.1;63.6
57799;BME280;43626;53.866;30.298;2023-03-21T11:44:29;1018.7;;;8.2;63.4
57799;BME280;43626;53.866;30.298;2023-03-21T11:48:40;1018.8;;;8.2;62.4
57799;BME280;43626;53.866;30.298;2023-03-21T11:54:25;1018.8;;;8.2;62.2
57799;BME280;43626;53.866;30.298;2023-03-21T11:59:28;1018.9;;;8.3;62.1
57799;BME280;43626;53.866;30.298;2023-03-21T12:04:06;1018.9;;;8.3;62
57799;BME280;43626;53.866;30.298;2023-03-21T12:08:49;1018.9;;;8.3;61.7
57799;BME280;43626;53.866;30.298;2023-03-21T12:14:14;1018.9;;;8.3;61.8
57799;BME280;43626;53.866;30.298;2023-03-21T12:19:12;1018.9;;;8.3;61.8
57799;BME280;43626;53.866;30.298;2023-03-21T12:24:18;1018.9;;;8.3;61.8
57799;BME280;43626;53.866;30.298;2023-03-21T12:29:00;1018.8;;;8.4;61.7
57799;BME280;43626;53.866;30.298;2023-03-21T12:34:29;1018.8;;;8.6;61.5
57799;BME280;43626;53.866;30.298;2023-03-21T12:39:03;1018.8;;;8.8;61.2
57799;BME280;43626;53.866;30.298;2023-03-21T12:43:48;1018.7;;;9;60.7
57799;BME280;43626;53.866;30.298;2023-03-21T12:48:40;1018.8;;;9.3;59.3
57799;BME280;43626;53.866;30.298;2023-03-21T12:53:51;1018.7;;;9.5;59
57799;BME280;43626;53.866;30.298;2023-03-21T12:59:26;1018.7;;;9.6;58.2
57799;BME280;43626;53.866;30.298;2023-03-21T13:04:30;1018.6;;;9.7;57.7
57799;BME280;43626;53.866;30.298;2023-03-21T13:09:13;1018.5;;;9.8;57.2
57799;BME280;43626;53.866;30.298;2023-03-21T13:13:41;1018.5;;;9.9;57.2
57799;BME280;43626;53.866;30.298;2023-03-21T13:18:51;1018.5;;;10.1;57.2
57799;BME280;43626;53.866;30.298;2023-03-21T13:23:39;1018.5;;;10.2;56.7
57799;BME280;43626;53.866;30.298;2023-03-21T13:29:26;1018.4;;;10.3;56.6
57799;BME280;43626;53.866;30.298;2023-03-21T13:34:19;1018.4;;;10.4;56
57799;BME280;43626;53.866;30.298;2023-03-21T13:38:58;1018.4;;;10.4;55.4
57799;BME280;43626;53.866;30.298;2023-03-21T13:43:53;1018.4;;;10.4;55.1
57799;BME280;43626;53.866;30.298;2023-03-21T13:49:13;1018.4;;;10.4;55.1
57799;BME280;43626;53.866;30.298;2023-03-21T13:53:57;1018.4;;;10.5;55
57799;BME280;43626;53.866;30.298;2023-03-21T13:58:49;1018.4;;;10.5;55.4
57799;BME280;43626;53.866;30.298;2023-03-21T14:04:04;1018.4;;;10.5;55.5
57799;BME280;43626;53.866;30.298;2023-03-21T14:08:40;1018.4;;;10.6;55.3
57799;BME280;43626;53.866;30.298;2023-03-21T14:14:29;1018.4;;;10.5;55.2
57799;BME280;43626;53.866;30.298;2023-03-21T14:19:13;1018.4;;;10.5;55.3
57799;BME280;43626;53.866;30.298;2023-03-21T14:23:56;1018.4;;;10.4;55.3
57799;BME280;43626;53.866;30.298;2023-03-21T14:29:28;1018.4;;;10.3;55.4
57799;BME280;43626;53.866;30.298;2023-03-21T14:33:40;1018.5;;;10.2;55.4
57799;BME280;43626;53.866;30.298;2023-03-21T14:38:40;1018.5;;;10.1;55.7
57799;BME280;43626;53.866;30.298;2023-03-21T14:44:11;1018.5;;;10.1;55.8
57799;BME280;43626;53.866;30.298;2023-03-21T14:49:26;1018.6;;;10.1;55.8
57799;BME280;43626;53.866;30.298;2023-03-21T14:53:40;1018.6;;;10.1;55.8
57799;BME280;43626;53.866;30.298;2023-03-21T14:59:27;1018.6;;;10.1;55.9
57799;BME280;43626;53.866;30.298;2023-03-21T15:04:23;1018.7;;;10.1;56
57799;BME280;43626;53.866;30.298;2023-03-21T15:09:14;1018.7;;;10;56.2
57799;BME280;43626;53.866;30.298;2023-03-21T15:13:41;1018.9;;;9.9;56.5
57799;BME280;43626;53.866;30.298;2023-03-21T15:19:15;1019;;;9.7;56.8
57799;BME280;43626;53.866;30.298;2023-03-21T15:24:10;1019.1;;;9.5;57.1
57799;BME280;43626;53.866;30.298;2023-03-21T15:29:19;1019.1;;;9.3;58.1
57799;BME280;43626;53.866;30.298;2023-03-21T15:33:55;1019.1;;;9.2;58.7
57799;BME280;43626;53.866;30.298;2023-03-21T15:39:27;1019.2;;;9.1;59.2
57799;BME280;43626;53.866;30.298;2023-03-21T15:44:11;1019.2;;;9;59.6
57799;BME280;43626;53.866;30.298;2023-03-21T15:48:39;1019.2;;;9;60
57799;BME280;43626;53.866;30.298;2023-03-21T15:54:14;1019.3;;;9;59.9
57799;BME280;43626;53.866;30.298;2023-03-21T15:59:19;1019.4;;;9;59.7
57799;BME280;43626;53.866;30.298;2023-03-21T16:03:41;1019.5;;;8.9;59.6
57799;BME280;43626;53.866;30.298;2023-03-21T16:09:14;1019.6;;;8.7;59.8
57799;BME280;43626;53.866;30.298;2023-03-21T16:14:13;1019.7;;;8.6;59.9
57799;BME280;43626;53.866;30.298;2023-03-21T16:18:39;1019.8;;;8.5;59.8
57799;BME280;43626;53.866;30.298;2023-03-21T16:24:27;1019.8;;;8.4;60.2
57799;BME280;43626;53.866;30.298;2023-03-21T16:29:14;1019.8;;;8.3;60.4
57799;BME280;43626;53.866;30.298;2023-03-21T16:33:39;1019.8;;;8.2;60.4
57799;BME280;43626;53.866;30.298;2023-03-21T16:39:20;1019.8;;;8.1;60.5
57799;BME280;43626;53.866;30.298;2023-03-21T16:44:19;1019.8;;;8.1;60.7
57799;BME280;43626;53.866;30.298;2023-03-21T16:49:22;1019.9;;;8.1;60.8
57799;BME280;43626;53.866;30.298;2023-03-21T16:54:25;1019.9;;;8.1;60.5
57799;BME280;43626;53.866;30.298;2023-03-21T16:59:20;1019.9;;;8.2;60.2
57799;BME280;43626;53.866;30.298;2023-03-21T17:04:12;1020;;;8.3;60.1
57799;BME280;43626;53.866;30.298;2023-03-21T17:09:01;1020;;;8.3;60
57799;BME280;43626;53.866;30.298;2023-03-21T17:13:50;1020.1;;;8.3;60
57799;BME280;43626;53.866;30.298;2023-03-21T17:19:27;1020.1;;;8.3;60.1
57799;BME280;43626;53.866;30.298;2023-03-21T17:24:17;1020.2;;;8.2;60
57799;BME280;43626;53.866;30.298;2023-03-21T17:28:56;1020.2;;;8.1;60.3
57799;BME280;43626;53.866;30.298;2023-03-21T17:34:25;1020.3;;;8.1;60.1
57799;BME280;43626;53.866;30.298;2023-03-21T17:38:55;1020.3;;;8.1;60.2
57799;BME280;43626;53.866;30.298;2023-03-21T17:43:39;1020.4;;;8;60.3
57799;BME280;43626;53.866;30.298;2023-03-21T17:49:11;1020.4;;;8;60.4
57799;BME280;43626;53.866;30.298;2023-03-21T17:54:27;1020.5;;;8;60.4
57799;BME280;43626;53.866;30.298;2023-03-21T17:59:06;1020.4;;;8;60.3
57799;BME280;43626;53.866;30.298;2023-03-21T18:04:27;1020.4;;;8;60.3
57799;BME280;43626;53.866;30.298;2023-03-21T18:09:13;1020.4;;;8;60.3
57799;BME280;43626;53.866;30.298;2023-03-21T18:14:13;1020.5;;;7.9;60.4
57799;BME280;43626;53.866;30.298;2023-03-21T18:18:39;1020.5;;;7.9;60.4
57799;BME280;43626;53.866;30.298;2023-03-21T18:24:14;1020.6;;;7.8;60.4
57799;BME280;43626;53.866;30.298;2023-03-21T18:29:10;1020.6;;;7.7;60.7
57799;BME280;43626;53.866;30.298;2023-03-21T18:34:17;1020.7;;;7.7;61
57799;BME280;43626;53.866;30.298;2023-03-21T18:38:40;1020.7;;;7.7;61
57799;BME280;43626;53.866;30.298;2023-03-21T18:44:27;1020.8;;;7.7;61
57799;BME280;43626;53.866;30.298;2023-03-21T18:49:09;1020.8;;;7.8;61
57799;BME280;43626;53.866;30.298;2023-03-21T18:53:49;1020.8;;;7.8;61
57799;BME280;43626;53.866;30.298;2023-03-21T18:58:55;1020.9;;;7.8;61
57799;BME280;43626;53.866;30.298;2023-03-21T19:04:19;1021;;;7.8;60.9
57799;BME280;43626;53.866;30.298;2023-03-21T19:09:01;1021;;;7.8;61
57799;BME280;43626;53.866;30.298;2023-03-21T19:14:14;1021;;;7.8;61.2
57799;BME280;43626;53.866;30.298;2023-03-21T19:19:14;1021;;;7.8;61.2
57799;BME280;43626;53.866;30.298;2023-03-21T19:23:39;1021.1;;;7.8;61.1
57799;BME280;43626;53.866;30.298;2023-03-21T19:29:28;1021.1;;;7.8;61
57799;BME280;43626;53.866;30.298;2023-03-21T19:33:49;1021.1;;;7.8;61.1
57799;BME280;43626;53.866;30.298;2023-03-21T19:38:50;1021.1;;;7.8;61.2
57799;BME280;43626;53.866;30.298;2023-03-21T19:44:19;1021.1;;;7.8;61.1
57799;BME280;43626;53.866;30.298;2023-03-21T19:49:18;1021.1;;;7.8;61
57799;BME280;43626;53.866;30.298;2023-03-21T19:53:56;1021.1;;;7.9;60.9
57799;BME280;43626;53.866;30.298;2023-03-21T19:58:58;1021.2;;;7.8;60.8
57799;BME280;43626;53.866;30.298;2023-03-21T20:04:18;1021.1;;;7.9;60.8
57799;BME280;43626;53.866;30.298;2023-03-21T20:09:13;1021.1;;;7.9;60.8
57799;BME280;43626;53.866;30.298;2023-03-21T20:13:40;1021.2;;;7.9;60.8
57799;BME280;43626;53.866;30.298;2023-03-21T20:18:50;1021.2;;;7.9;60.8
57799;BME280;43626;53.866;30.298;2023-03-21T20:24:26;1021.2;;;7.9;60.8
57799;BME280;43626;53.866;30.298;2023-03-21T20:29:28;1021.2;;;7.9;60.8
57799;BME280;43626;53.866;30.298;2023-03-21T20:33:40;1021.2;;;7.8;60.8
57799;BME280;43626;53.866;30.298;2023-03-21T20:39:28;1021.2;;;7.8;60.8
57799;BME280;43626;53.866;30.298;2023-03-21T20:44:06;1021.2;;;7.8;60.7
57799;BME280;43626;53.866;30.298;2023-03-21T20:48:50;1021.2;;;7.8;60.7
57799;BME280;43626;53.866;30.298;2023-03-21T20:53:51;1021.2;;;7.8;60.8
57799;BME280;43626;53.866;30.298;2023-03-21T20:59:28;1021.2;;;7.8;60.9
57799;BME280;43626;53.866;30.298;2023-03-21T21:03:40;1021.2;;;7.8;60.9
57799;BME280;43626;53.866;30.298;2023-03-21T21:09:14;1021.3;;;7.8;61
57799;BME280;43626;53.866;30.298;2023-03-21T21:13:51;1021.3;;;7.7;60.9
57799;BME280;43626;53.866;30.298;2023-03-21T21:18:48;1021.3;;;7.7;61
57799;BME280;43626;53.866;30.298;2023-03-21T21:24:26;1021.3;;;7.6;61.1
57799;BME280;43626;53.866;30.298;2023-03-21T21:29:18;1021.3;;;7.6;61.1
57799;BME280;43626;53.866;30.298;2023-03-21T21:33:56;1021.3;;;7.5;61.2
57799;BME280;43626;53.866;30.298;2023-03-21T21:39:26;1021.3;;;7.5;61.3
57799;BME280;43626;53.866;30.298;2023-03-21T21:43:58;1021.3;;;7.5;61.2
57799;BME280;43626;53.866;30.298;2023-03-21T21:49:26;1021.3;;;7.4;61.4
57799;BME280;43626;53.866;30.298;2023-03-21T21:54:08;1021.3;;;7.4;61.5
57799;BME280;43626;53.866;30.298;2023-03-21T21:58:40;1021.3;;;7.4;61.8
57799;BME280;43626;53.866;30.298;2023-03-21T22:04:28;1021.4;;;7.4;61.9
57799;BME280;43626;53.866;30.298;2023-03-21T22:08:40;1021.4;;;7.4;61.8
57799;BME280;43626;53.866;30.298;2023-03-21T22:14:28;1021.4;;;7.4;61.5
57799;BME280;43626;53.866;30.298;2023-03-21T22:19:18;1021.4;;;7.4;61.5
57799;BME280;43626;53.866;30.298;2023-03-21T22:23:40;1021.4;;;7.3;61.6
57799;BME280;43626;53.866;30.298;2023-03-21T22:29:26;1021.4;;;7.2;61.5
57799;BME280;43626;53.866;30.298;2023-03-21T22:33:50;1021.4;;;7.2;61.9
57799;BME280;43626;53.866;30.298;2023-03-21T22:39:28;1021.4;;;7.2;62.4
57799;BME280;43626;53.866;30.298;2023-03-21T22:44:20;1021.5;;;7.2;63.1
57799;BME280;43626;53.866;30.298;2023-03-21T22:48:46;1021.5;;;7.2;62.9
57799;BME280;43626;53.866;30.298;2023-03-21T22:54:26;1021.6;;;7.2;62.6
57799;BME280;43626;53.866;30.298;2023-03-21T22:59:06;1021.6;;;7.2;62.7
57799;BME280;43626;53.866;30.298;2023-03-21T23:04:26;1021.7;;;7.2;62.8
57799;BME280;43626;53.866;30.298;2023-03-21T23:09:18;1021.7;;;7.2;62.8
57799;BME280;43626;53.866;30.298;2023-03-21T23:13:40;1021.8;;;7.2;62.8
57799;BME280;43626;53.866;30.298;2023-03-21T23:19:28;1021.8;;;7.1;63.1
57799;BME280;43626;53.866;30.298;2023-03-21T23:23:52;1021.8;;;7.1;63
57799;BME280;43626;53.866;30.298;2023-03-21T23:29:10;1021.8;;;7.1;63.3
57799;BME280;43626;53.866;30.298;2023-03-21T23:34:16;1021.8;;;7.1;63.2
57799;BME280;43626;53.866;30.298;2023-03-21T23:39:02;1021.9;;;7.1;63.4
57799;BME280;43626;53.866;30.298;2023-03-21T23:44:20;1021.9;;;7.1;63.5
57799;BME280;43626;53.866;30.298;2023-03-21T23:48:50;1021.8;;;7.1;63.7
57799;BME280;43626;53.866;30.298;2023-03-21T23:54:28;1021.8;;;7.1;63.5
57799;BME280;43626;53.866;30.298;2023-03-21T23:59:20;1021.8;;;7.2;63.4
